Lome, Togo

8:51 AM GMT on August 29, 2016 (GMT +0000)
Tokoin | | Change Station

Elev 82 ft 6.17 °N, 1.25 °E | Updated 21 minutes ago

Light Rain
Light Rain Drizzle
75 °F
Feels Like 75 °F
N
7
Wind Variable Wind from South

Today
High -- | Low -- °F
--% Chance of Precip.
Yesterday
High -- | Low -- °F
Precip. -- in
Pressure 30.06 in
Visibility 4.3 miles
Clouds Mostly Cloudy 900 ft
Mostly Cloudy 2000 ft
Dew Point 75 °F
Humidity 100%
Rainfall 0.00 in
Snow Depth Not available.
5:48 AM 6:03 PM
Waning Crescent, 10% visible
METAR DXXX 290830Z 18006KT 7000 -RADZ BKN009 BKN020 24/24 Q1018 RERADZ TEMPO 4000 RADZ
Pressure 30.06 in
Visibility 4.3 miles
Clouds Mostly Cloudy 900 ft
Mostly Cloudy 2000 ft
Dew Point 75 °F
Humidity 100%
Rainfall 0.00 in
Snow Depth Not available.
5:48 AM 6:03 PM
Waning Crescent, 10% visible
METAR DXXX 290830Z 18006KT 7000 -RADZ BKN009 BKN020 24/24 Q1018 RERADZ TEMPO 4000 RADZ

10-Day Weather Forecast

No radar image for this location.
×

Almanac

Astronomy

Aug. 29, 2016 Rise Set
Actual Time
Civil Twilight
Nautical Twilight
Astronomical Twilight
Moon
Length of Visible Light
Length of Day
Tomorrow will be .
, % of the Moon is Illuminated

Today's Extremes

Country Highs Country Lows

Community

WunderPhotos

Upload Photos

1,935,800 photos uploaded!

WunderBlog® & News

Nearby

Air Quality

  Air Quality AQ Index Pollutant
Not available.

Snow Depth

Station Depth Elevation

Earthquake Activity

City Distance Mag. Time & Date
Minimum magnitude displayed is 2.5.

Coastal Water Temperatures

Place Temperature

Stations

Nearby Weather Stations

Station Location Temp. Windchill Dew Point Humidity Wind Precip. Elev Updated Type